KDVO

Gnoss Field Airport

Novato, California, USA
METAR KDVO 222115Z AUTO VRB03KT 10SM CLR 21/11 A2992 RMK AO2
Observed Flight Rules
Oct-22 @ 21:15 UTC (16 minutes ago) Visual Flight Rules
Wind Visibility Clouds
Variable at 3 knots 10 miles
  • Clear skies
Temperatures Readings
Current 21°C / 70°F
Dewpoint 11°C / 52°F
Humidity 53%
Altimeter 29.92" Hg
Pressure 1013 hPa
Elevation 1
METAR KDVO 222115Z AUTO VRB03KT 10SM CLR 21/11 A2992 RMK AO2
Observed Flight Rules
Oct-22 @ 21:15 UTC
(16 minutes ago)
VFR
Wind Visibility
Variable at 3 knots 10 miles
Clouds
  • Clear skies
Temperature Dewpoint
21°C / 70°F 11°C / 52°F
Humidity Altimeter Pressure
53% 29.92" Hg 1013 hPa